Time;durP1;ratioP1;P1;durP2;ratioP2;P2;SDS_P1;SDS_P2;PMS_P1;PMS_P2;Temp;Humidity;BMP_temperature;BMP_pressure;BME280_temperature;BME280_humidity;BME280_pressure;Samples;Min_cycle;Max_cycle;Signal;HPM_P1;HPM_P2
2022/04/29 00:00:41;;;;;;;42.37;24.50;;;;;;;;;;5052668;28;20410;-65
2022/04/29 00:03:07;;;;;;;33.67;18.53;;;;;;;;;;5052629;28;20463;-57
2022/04/29 00:05:36;;;;;;;53.90;27.53;;;;;;;;;;5052599;28;20408;-57
2022/04/29 00:08:03;;;;;;;26.73;18.40;;;;;;;;;;5052987;28;20434;-61
2022/04/29 00:10:29;;;;;;;40.67;25.23;;;;;;;;;;5052649;28;20439;-65
2022/04/29 00:12:55;;;;;;;32.53;20.57;;;;;;;;;;5052480;28;20912;-62
2022/04/29 00:15:21;;;;;;;30.10;19.00;;;;;;;;;;5051242;28;20419;-56
2022/04/29 00:17:48;;;;;;;35.90;19.20;;;;;;;;;;5052435;28;20448;-58
2022/04/29 00:20:14;;;;;;;24.33;16.40;;;;;;;;;;5052478;28;20436;-58
2022/04/29 00:22:44;;;;;;;25.40;16.40;;;;;;;;;;5052176;28;20471;-60
2022/04/29 00:25:10;;;;;;;30.17;17.43;;;;;;;;;;5052310;28;20462;-50
2022/04/29 00:27:38;;;;;;;25.47;16.27;;;;;;;;;;5052268;28;20395;-59
2022/04/29 00:30:05;;;;;;;23.43;15.63;;;;;;;;;;5050853;28;20416;-67
2022/04/29 00:32:31;;;;;;;26.73;16.90;;;;;;;;;;5052136;28;20399;-66
2022/04/29 00:34:57;;;;;;;25.23;17.17;;;;;;;;;;5050908;28;20541;-59
2022/04/29 00:37:23;;;;;;;25.70;15.63;;;;;;;;;;5052149;28;20400;-60
2022/04/29 00:39:49;;;;;;;24.93;18.00;;;;;;;;;;5050811;28;20776;-58
2022/04/29 00:42:16;;;;;;;29.50;17.07;;;;;;;;;;5052172;28;20403;-56
2022/04/29 00:44:43;;;;;;;28.20;15.73;;;;;;;;;;5052188;28;20411;-58
2022/04/29 00:47:09;;;;;;;27.83;17.53;;;;;;;;;;5052001;28;20432;-60
2022/04/29 00:49:35;;;;;;;26.23;17.60;;;;;;;;;;5051987;28;20439;-57
2022/04/29 00:52:01;;;;;;;24.23;17.13;;;;;;;;;;5052271;28;20772;-64
2022/04/29 00:54:30;;;;;;;26.93;17.03;;;;;;;;;;5051940;28;20459;-61
2022/04/29 00:56:57;;;;;;;25.93;17.30;;;;;;;;;;5050618;28;20489;-58
2022/04/29 00:59:33;;;;;;;28.70;19.13;;;;;;;;;;5051805;28;20446;-56
2022/04/29 01:02:01;;;;;;;29.20;19.87;;;;;;;;;;5051811;28;20430;-56
2022/04/29 01:04:36;;;;;;;26.13;18.10;;;;;;;;;;5051899;28;20558;-52
2022/04/29 01:07:03;;;;;;;27.47;16.80;;;;;;;;;;5051855;28;20438;-66
2022/04/29 01:09:29;;;;;;;23.00;16.37;;;;;;;;;;5056024;28;20407;-52
2022/04/29 01:11:56;;;;;;;29.23;17.50;;;;;;;;;;5056065;28;20411;-65
2022/04/29 01:14:22;;;;;;;30.77;19.63;;;;;;;;;;5055836;28;20403;-57
2022/04/29 01:16:48;;;;;;;27.03;19.30;;;;;;;;;;5055963;28;20468;-52
2022/04/29 01:19:14;;;;;;;28.40;18.90;;;;;;;;;;5054682;28;20780;-57
2022/04/29 01:21:41;;;;;;;30.03;18.70;;;;;;;;;;5055748;28;20834;-54
2022/04/29 01:24:08;;;;;;;29.67;17.90;;;;;;;;;;5054352;28;20535;-52
2022/04/29 01:26:34;;;;;;;28.33;18.63;;;;;;;;;;5055617;28;20406;-59
2022/04/29 01:29:02;;;;;;;31.00;17.50;;;;;;;;;;5055802;28;20465;-63
2022/04/29 01:31:31;;;;;;;28.47;17.70;;;;;;;;;;5055664;28;20435;-65
2022/04/29 01:33:57;;;;;;;28.40;16.67;;;;;;;;;;5055802;28;20400;-54
2022/04/29 01:36:23;;;;;;;25.00;16.40;;;;;;;;;;5055543;28;20403;-60
2022/04/29 01:38:49;;;;;;;24.87;15.40;;;;;;;;;;5055565;28;20449;-64
2022/04/29 01:41:15;;;;;;;29.20;17.87;;;;;;;;;;5056047;28;20403;-61
2022/04/29 01:43:41;;;;;;;26.83;16.80;;;;;;;;;;5055538;28;20466;-51
2022/04/29 01:46:07;;;;;;;28.93;17.73;;;;;;;;;;5054253;28;20415;-62
2022/04/29 01:48:33;;;;;;;31.73;18.77;;;;;;;;;;5055444;28;20408;-52
2022/04/29 01:51:05;;;;;;;29.80;17.87;;;;;;;;;;5055445;28;20402;-58
2022/04/29 01:53:31;;;;;;;28.00;18.63;;;;;;;;;;5055455;28;20930;-64
2022/04/29 01:55:57;;;;;;;29.63;17.60;;;;;;;;;;5055456;28;20407;-55
2022/04/29 01:58:23;;;;;;;31.10;17.90;;;;;;;;;;5055210;28;20455;-63
2022/04/29 02:00:49;;;;;;;25.43;17.03;;;;;;;;;;5055308;28;20506;-64
2022/04/29 02:03:15;;;;;;;25.80;16.97;;;;;;;;;;5055178;28;20471;-71
2022/04/29 02:05:41;;;;;;;25.73;16.73;;;;;;;;;;5055007;28;20499;-63
2022/04/29 02:08:07;;;;;;;28.00;16.73;;;;;;;;;;5054681;28;20416;-57
2022/04/29 02:10:33;;;;;;;24.20;17.87;;;;;;;;;;5054872;28;20404;-53
2022/04/29 02:13:02;;;;;;;24.43;17.47;;;;;;;;;;5053505;28;20431;-60
2022/04/29 02:15:28;;;;;;;34.43;18.60;;;;;;;;;;5053532;28;20419;-56
2022/04/29 02:17:54;;;;;;;26.60;17.40;;;;;;;;;;5053391;28;20420;-60
2022/04/29 02:20:21;;;;;;;31.23;18.50;;;;;;;;;;5054465;28;20974;-58
2022/04/29 02:22:47;;;;;;;30.33;18.97;;;;;;;;;;5054569;28;20904;-56
2022/04/29 02:25:13;;;;;;;28.77;17.50;;;;;;;;;;5054559;28;20408;-65
2022/04/29 02:27:42;;;;;;;31.53;19.33;;;;;;;;;;5054424;28;20818;-62
2022/04/29 02:30:09;;;;;;;35.43;18.47;;;;;;;;;;5054493;28;20404;-54
2022/04/29 02:32:35;;;;;;;27.23;18.83;;;;;;;;;;5054502;28;20411;-50
2022/04/29 02:35:01;;;;;;;22.50;17.10;;;;;;;;;;5054426;28;20453;-52
2022/04/29 02:37:27;;;;;;;27.47;16.97;;;;;;;;;;5054327;28;20491;-53
2022/04/29 02:39:53;;;;;;;28.27;18.57;;;;;;;;;;5054308;28;20404;-70
2022/04/29 02:42:19;;;;;;;42.27;18.10;;;;;;;;;;5052871;28;20785;-60
2022/04/29 02:44:45;;;;;;;29.33;18.33;;;;;;;;;;5054315;28;20430;-61
2022/04/29 02:47:12;;;;;;;26.90;17.27;;;;;;;;;;5054089;28;20419;-59
2022/04/29 02:49:39;;;;;;;28.17;16.67;;;;;;;;;;5054004;28;20477;-67
2022/04/29 02:52:06;;;;;;;22.47;17.13;;;;;;;;;;5052925;28;20515;-53
2022/04/29 02:54:35;;;;;;;23.70;15.10;;;;;;;;;;5054127;28;20496;-60
2022/04/29 02:57:01;;;;;;;24.37;15.80;;;;;;;;;;5054170;28;20443;-66
2022/04/29 02:59:27;;;;;;;26.40;17.27;;;;;;;;;;5053993;28;20411;-61
2022/04/29 03:01:53;;;;;;;25.10;16.47;;;;;;;;;;5054028;28;20420;-73
2022/04/29 03:04:20;;;;;;;31.23;16.93;;;;;;;;;;5053810;28;20466;-60
2022/04/29 03:06:46;;;;;;;22.13;16.13;;;;;;;;;;5053993;28;20492;-61
2022/04/29 03:09:16;;;;;;;32.63;17.10;;;;;;;;;;5054166;28;20412;-67
2022/04/29 03:11:42;;;;;;;32.00;17.90;;;;;;;;;;5053682;28;20973;-70
2022/04/29 03:14:09;;;;;;;33.97;17.97;;;;;;;;;;5053596;28;20400;-75
2022/04/29 03:16:35;;;;;;;31.80;16.60;;;;;;;;;;5053727;28;20400;-68
2022/04/29 03:19:01;;;;;;;27.10;17.07;;;;;;;;;;5053608;28;20495;-68
2022/04/29 03:21:27;;;;;;;27.07;16.57;;;;;;;;;;5053466;28;20479;-73
2022/04/29 03:23:54;;;;;;;29.03;18.60;;;;;;;;;;5053319;28;20987;-73
2022/04/29 03:26:20;;;;;;;23.43;17.50;;;;;;;;;;5053412;28;20734;-78
2022/04/29 03:28:46;;;;;;;24.73;16.90;;;;;;;;;;5053588;28;20423;-67
2022/04/29 03:31:12;;;;;;;26.50;17.43;;;;;;;;;;5052746;28;20456;-77
2022/04/29 03:33:38;;;;;;;32.20;19.13;;;;;;;;;;5053356;28;20416;-69
2022/04/29 03:36:04;;;;;;;26.83;18.10;;;;;;;;;;5053088;28;20892;-61
2022/04/29 03:38:31;;;;;;;36.83;18.57;;;;;;;;;;5053149;28;20507;-73
2022/04/29 03:40:57;;;;;;;33.43;17.03;;;;;;;;;;5052979;28;20399;-73
2022/04/29 03:43:23;;;;;;;27.10;16.80;;;;;;;;;;5051830;28;20467;-64
2022/04/29 03:45:49;;;;;;;26.87;17.70;;;;;;;;;;5053026;28;20407;-69
2022/04/29 03:48:15;;;;;;;28.43;17.87;;;;;;;;;;5053136;28;20416;-69
2022/04/29 03:50:41;;;;;;;35.57;19.27;;;;;;;;;;5053010;28;20396;-71
2022/04/29 03:53:07;;;;;;;28.30;18.50;;;;;;;;;;5051591;28;20420;-73
2022/04/29 03:55:35;;;;;;;26.30;17.30;;;;;;;;;;5052857;28;20411;-67
2022/04/29 03:58:02;;;;;;;32.40;18.37;;;;;;;;;;5052670;28;20490;-68
2022/04/29 04:00:32;;;;;;;26.70;17.17;;;;;;;;;;5052839;28;20791;-76
2022/04/29 04:02:59;;;;;;;30.63;18.37;;;;;;;;;;5052789;28;20464;-72
2022/04/29 04:05:25;;;;;;;30.27;18.20;;;;;;;;;;5052558;28;20403;-70
2022/04/29 04:07:51;;;;;;;26.53;17.80;;;;;;;;;;5052754;28;20415;-65
2022/04/29 04:10:17;;;;;;;38.13;17.00;;;;;;;;;;5052897;28;20776;-64
2022/04/29 04:12:48;;;;;;;27.97;18.00;;;;;;;;;;5051637;28;20420;-71
2022/04/29 04:15:15;;;;;;;29.10;17.37;;;;;;;;;;5051573;28;20420;-72
2022/04/29 04:17:41;;;;;;;30.33;17.43;;;;;;;;;;5052608;28;20772;-68
2022/04/29 04:20:08;;;;;;;30.40;17.73;;;;;;;;;;5052627;28;20752;-78
2022/04/29 04:22:35;;;;;;;25.70;17.50;;;;;;;;;;5052354;28;20451;-71
2022/04/29 04:25:02;;;;;;;29.60;18.80;;;;;;;;;;5052382;28;20462;-71
2022/04/29 04:27:28;;;;;;;24.57;18.10;;;;;;;;;;5052247;28;20430;-79
2022/04/29 04:29:54;;;;;;;33.20;19.13;;;;;;;;;;5052162;28;20412;-59
2022/04/29 04:32:24;;;;;;;26.77;17.13;;;;;;;;;;5051007;28;20937;-73
2022/04/29 04:34:50;;;;;;;31.20;18.47;;;;;;;;;;5052859;28;20489;-52
2022/04/29 04:37:17;;;;;;;27.77;17.50;;;;;;;;;;5051669;28;20900;-51
2022/04/29 04:39:44;;;;;;;36.90;17.57;;;;;;;;;;5051607;28;20438;-52
2022/04/29 04:42:10;;;;;;;28.43;17.30;;;;;;;;;;5050610;28;20404;-53
2022/04/29 04:44:36;;;;;;;32.40;18.00;;;;;;;;;;5050159;28;20529;-52
2022/04/29 04:47:05;;;;;;;30.43;17.17;;;;;;;;;;5051437;28;20761;-52
2022/04/29 04:49:31;;;;;;;24.47;17.20;;;;;;;;;;5051664;28;20411;-54
2022/04/29 04:51:58;;;;;;;32.50;18.20;;;;;;;;;;5051388;28;20505;-67
2022/04/29 04:54:27;;;;;;;26.13;17.10;;;;;;;;;;5052353;28;20418;-60
2022/04/29 04:56:53;;;;;;;30.80;17.33;;;;;;;;;;5051264;28;20411;-64
2022/04/29 04:59:19;;;;;;;24.07;17.30;;;;;;;;;;5051025;28;20772;-64
2022/04/29 05:01:45;;;;;;;34.33;18.00;;;;;;;;;;5051437;28;20408;-54
2022/04/29 05:04:11;;;;;;;34.93;17.00;;;;;;;;;;5051113;28;20489;-54
2022/04/29 05:06:37;;;;;;;32.83;17.90;;;;;;;;;;5049856;28;20916;-53
2022/04/29 05:09:04;;;;;;;28.40;17.07;;;;;;;;;;5051241;28;20420;-52
2022/04/29 05:11:30;;;;;;;35.03;18.20;;;;;;;;;;5051131;28;20534;-51
2022/04/29 05:13:57;;;;;;;22.20;16.57;;;;;;;;;;5049731;28;20430;-52
2022/04/29 05:16:23;;;;;;;22.80;16.93;;;;;;;;;;5051005;28;20493;-52
2022/04/29 05:18:49;;;;;;;26.93;17.30;;;;;;;;;;5051132;28;20435;-54
2022/04/29 05:21:15;;;;;;;30.20;17.30;;;;;;;;;;5051030;28;20812;-52
2022/04/29 05:23:42;;;;;;;30.97;18.50;;;;;;;;;;5050865;28;20560;-59
2022/04/29 05:26:08;;;;;;;26.27;17.90;;;;;;;;;;5051128;28;20407;-64
2022/04/29 05:28:36;;;;;;;29.90;18.30;;;;;;;;;;5051882;28;20407;-59
2022/04/29 05:31:03;;;;;;;28.00;17.53;;;;;;;;;;5052052;28;20404;-70
2022/04/29 05:33:30;;;;;;;29.60;17.43;;;;;;;;;;5051777;28;20510;-64
2022/04/29 05:35:56;;;;;;;26.37;17.07;;;;;;;;;;5051900;28;20415;-68
2022/04/29 05:38:22;;;;;;;23.87;15.83;;;;;;;;;;5051779;28;20423;-67
2022/04/29 05:43:33;;;;;;;26.60;16.97;;;;;;;;;;5051752;28;20521;-68
2022/04/29 05:45:59;;;;;;;29.60;15.77;;;;;;;;;;5050400;28;20920;-65
2022/04/29 05:48:25;;;;;;;23.17;16.17;;;;;;;;;;5051785;28;20402;-73
2022/04/29 05:50:51;;;;;;;20.20;15.17;;;;;;;;;;5051636;28;20417;-73
2022/04/29 05:53:17;;;;;;;21.80;14.50;;;;;;;;;;5050872;28;20819;-73
2022/04/29 05:55:43;;;;;;;25.60;13.87;;;;;;;;;;5055617;28;20974;-72
2022/04/29 05:58:09;;;;;;;24.10;15.43;;;;;;;;;;5054128;28;20931;-69
2022/04/29 06:00:35;;;;;;;21.37;14.77;;;;;;;;;;5055339;28;20403;-73
2022/04/29 06:03:02;;;;;;;26.13;14.43;;;;;;;;;;5053965;28;20968;-71
2022/04/29 06:05:28;;;;;;;20.30;13.57;;;;;;;;;;5055510;28;20472;-70
2022/04/29 06:07:54;;;;;;;26.83;14.07;;;;;;;;;;5055082;28;20404;-72
2022/04/29 06:10:20;;;;;;;25.23;13.80;;;;;;;;;;5055170;28;20415;-73
2022/04/29 06:12:47;;;;;;;27.97;14.10;;;;;;;;;;5055295;28;20438;-73
2022/04/29 06:15:14;;;;;;;24.90;14.30;;;;;;;;;;5055163;28;20446;-66
2022/04/29 06:17:40;;;;;;;29.33;14.60;;;;;;;;;;5055101;28;20412;-73
2022/04/29 06:20:06;;;;;;;27.37;14.63;;;;;;;;;;5054936;28;20414;-73
2022/04/29 06:22:32;;;;;;;25.77;16.10;;;;;;;;;;5054690;28;20474;-73
2022/04/29 06:24:58;;;;;;;27.00;15.87;;;;;;;;;;5053599;28;20419;-73
2022/04/29 06:27:24;;;;;;;23.07;15.40;;;;;;;;;;5055002;28;20903;-73
2022/04/29 06:29:50;;;;;;;23.00;14.07;;;;;;;;;;5054950;28;20457;-73
2022/04/29 06:32:16;;;;;;;28.90;14.63;;;;;;;;;;5055224;28;20458;-70
2022/04/29 06:34:43;;;;;;;21.10;13.90;;;;;;;;;;5054660;28;20846;-68
2022/04/29 06:37:10;;;;;;;17.97;13.33;;;;;;;;;;5054529;28;20400;-73
2022/04/29 06:39:37;;;;;;;24.63;13.90;;;;;;;;;;5054672;28;20419;-73
2022/04/29 06:42:03;;;;;;;20.43;14.17;;;;;;;;;;5054359;28;20465;-74
2022/04/29 06:44:29;;;;;;;26.03;14.90;;;;;;;;;;5054488;28;20827;-74
2022/04/29 06:46:55;;;;;;;22.10;15.23;;;;;;;;;;5054428;28;20414;-73
2022/04/29 06:49:21;;;;;;;25.73;14.60;;;;;;;;;;5054446;28;20676;-72
2022/04/29 06:51:47;;;;;;;24.83;14.60;;;;;;;;;;5054452;28;20433;-65
2022/04/29 06:54:13;;;;;;;26.40;14.63;;;;;;;;;;5054410;28;20506;-59
2022/04/29 06:56:39;;;;;;;25.17;15.80;;;;;;;;;;5054350;28;20408;-54
2022/04/29 06:59:05;;;;;;;22.87;15.30;;;;;;;;;;5053448;28;20427;-61
2022/04/29 07:01:32;;;;;;;29.10;16.07;;;;;;;;;;5054585;28;20407;-60
2022/04/29 07:03:58;;;;;;;26.80;15.97;;;;;;;;;;5054077;28;20467;-59
2022/04/29 07:06:24;;;;;;;32.60;15.30;;;;;;;;;;5053069;28;20434;-65
2022/04/29 07:08:50;;;;;;;24.00;15.17;;;;;;;;;;5053944;28;20880;-58
2022/04/29 07:11:16;;;;;;;20.63;15.23;;;;;;;;;;5053938;28;20502;-63
2022/04/29 07:13:43;;;;;;;16.30;11.80;;;;;;;;;;5053939;28;20447;-70
2022/04/29 07:16:09;;;;;;;12.87;9.57;;;;;;;;;;5053907;28;20473;-63
2022/04/29 07:18:36;;;;;;;20.33;11.00;;;;;;;;;;5052503;28;20454;-67
2022/04/29 07:21:03;;;;;;;17.60;11.20;;;;;;;;;;5053831;28;20922;-60
2022/04/29 07:23:29;;;;;;;17.40;11.43;;;;;;;;;;5053374;28;20463;-67
2022/04/29 07:25:55;;;;;;;16.40;11.40;;;;;;;;;;5053671;28;20407;-65
2022/04/29 07:28:21;;;;;;;19.33;12.07;;;;;;;;;;5053562;28;20418;-65
2022/04/29 07:30:47;;;;;;;23.40;12.80;;;;;;;;;;5052543;28;20427;-65
2022/04/29 07:33:13;;;;;;;15.20;10.73;;;;;;;;;;5053828;28;20408;-55
2022/04/29 07:43:53;;;;;;;15.00;9.67;;;;;;;;;;5055249;28;20474;-69
2022/04/29 07:46:21;;;;;;;16.53;9.60;;;;;;;;;;5072208;28;20891;-60
2022/04/29 07:48:48;;;;;;;15.77;10.67;;;;;;;;;;5088277;28;20497;-61
2022/04/29 07:51:14;;;;;;;14.23;10.30;;;;;;;;;;5072969;28;20399;-61
2022/04/29 07:53:42;;;;;;;14.93;10.77;;;;;;;;;;5059308;28;20414;-63
2022/04/29 07:56:08;;;;;;;23.50;10.40;;;;;;;;;;5051361;28;20811;-69
2022/04/29 07:58:34;;;;;;;11.73;10.50;;;;;;;;;;5052299;28;20768;-59
2022/04/29 08:01:01;;;;;;;15.33;10.00;;;;;;;;;;5053303;28;21007;-66
2022/04/29 08:03:28;;;;;;;13.37;8.50;;;;;;;;;;5052949;28;20494;-63
2022/04/29 08:05:55;;;;;;;9.37;8.53;;;;;;;;;;5052654;28;20407;-60
2022/04/29 08:08:21;;;;;;;10.67;7.80;;;;;;;;;;5052580;28;20690;-60
2022/04/29 08:10:47;;;;;;;10.00;8.43;;;;;;;;;;5065755;28;20407;-61
2022/04/29 08:13:13;;;;;;;10.20;7.80;;;;;;;;;;5072246;28;20452;-58
2022/04/29 08:15:43;;;;;;;11.63;9.20;;;;;;;;;;5059457;28;20442;-62
2022/04/29 08:18:09;;;;;;;10.17;9.10;;;;;;;;;;5051729;28;20419;-69
2022/04/29 08:20:35;;;;;;;13.73;9.83;;;;;;;;;;5051976;28;20418;-65
2022/04/29 08:23:01;;;;;;;15.83;9.10;;;;;;;;;;5051681;28;20486;-65
2022/04/29 08:25:27;;;;;;;15.73;8.83;;;;;;;;;;5051879;28;20880;-62
2022/04/29 08:27:53;;;;;;;12.23;8.30;;;;;;;;;;5052016;28;20423;-63
2022/04/29 08:30:19;;;;;;;14.13;8.70;;;;;;;;;;5051694;28;20419;-57
2022/04/29 08:32:47;;;;;;;10.17;8.57;;;;;;;;;;5050597;28;20758;-64
2022/04/29 08:35:13;;;;;;;15.10;9.10;;;;;;;;;;5051534;28;20419;-67
2022/04/29 08:37:40;;;;;;;12.10;8.53;;;;;;;;;;5051498;28;20410;-75
2022/04/29 08:40:07;;;;;;;11.63;8.10;;;;;;;;;;5050185;28;20463;-66
2022/04/29 08:42:37;;;;;;;8.70;7.20;;;;;;;;;;5056465;28;20446;-60
2022/04/29 08:45:06;;;;;;;9.77;7.10;;;;;;;;;;5037733;28;20472;-61
2022/04/29 08:47:34;;;;;;;12.03;7.03;;;;;;;;;;5072192;28;20798;-62
2022/04/29 08:50:01;;;;;;;7.30;6.60;;;;;;;;;;5062987;28;20507;-63
2022/04/29 08:52:27;;;;;;;7.33;6.63;;;;;;;;;;5051685;28;20400;-61
2022/04/29 09:00:23;;;;;;;8.00;7.10;;;;;;;;;;5036288;28;20424;-57
2022/04/29 09:02:49;;;;;;;11.23;8.70;;;;;;;;;;5032069;28;20452;-52
2022/04/29 09:05:15;;;;;;;18.73;6.57;;;;;;;;;;5051456;28;20915;-63
2022/04/29 09:08:01;;;;;;;9.20;5.40;;;;;;;;;;5051412;28;20407;-63
2022/04/29 09:10:34;;;;;;;8.60;5.73;;;;;;;;;;5051339;28;20422;-61
2022/04/29 09:13:19;;;;;;;6.80;6.10;;;;;;;;;;5051289;28;20406;-58
2022/04/29 09:15:50;;;;;;;16.17;6.00;;;;;;;;;;5060056;28;20780;-55
2022/04/29 09:18:52;;;;;;;8.20;6.20;;;;;;;;;;5071451;28;20913;-52
2022/04/29 09:21:19;;;;;;;8.40;6.13;;;;;;;;;;4989778;28;20534;-67
2022/04/29 09:23:54;;;;;;;11.10;5.77;;;;;;;;;;5056337;28;20475;-69
2022/04/29 09:26:20;;;;;;;8.90;5.90;;;;;;;;;;5071245;28;20406;-56
2022/04/29 09:28:47;;;;;;;7.90;6.80;;;;;;;;;;5069094;28;20449;-67
2022/04/29 09:31:14;;;;;;;21.30;11.80;;;;;;;;;;5055427;28;20411;-59
2022/04/29 09:33:40;;;;;;;10.27;7.70;;;;;;;;;;5052240;28;20897;-65
2022/04/29 09:36:06;;;;;;;8.93;5.70;;;;;;;;;;5055027;28;20820;-65
2022/04/29 09:41:22;;;;;;;7.87;6.37;;;;;;;;;;5055281;28;20773;-66
2022/04/29 09:43:48;;;;;;;7.20;5.80;;;;;;;;;;5055167;28;20467;-62
2022/04/29 09:46:17;;;;;;;9.73;5.93;;;;;;;;;;5054933;28;20404;-57
2022/04/29 09:48:52;;;;;;;10.90;6.73;;;;;;;;;;5054735;28;20515;-63
2022/04/29 09:51:37;;;;;;;8.53;6.70;;;;;;;;;;5055067;28;20509;-66
2022/04/29 09:54:12;;;;;;;9.20;6.70;;;;;;;;;;5054603;28;20486;-64
2022/04/29 09:56:39;;;;;;;10.43;6.53;;;;;;;;;;5054870;28;20396;-69
2022/04/29 09:59:06;;;;;;;8.37;6.37;;;;;;;;;;5054717;28;20408;-66
2022/04/29 10:01:32;;;;;;;8.10;6.30;;;;;;;;;;5054608;28;20400;-60
2022/04/29 10:04:00;;;;;;;15.47;7.27;;;;;;;;;;5041936;28;20470;-71
2022/04/29 10:06:27;;;;;;;10.57;6.73;;;;;;;;;;5037491;28;20426;-70
2022/04/29 10:08:53;;;;;;;12.30;8.80;;;;;;;;;;5054628;28;20434;-69
2022/04/29 10:11:24;;;;;;;12.50;7.57;;;;;;;;;;5054645;28;20457;-72
2022/04/29 10:13:51;;;;;;;10.60;7.90;;;;;;;;;;5054623;28;20440;-73
2022/04/29 10:16:18;;;;;;;10.37;7.10;;;;;;;;;;5069872;28;20411;-70
2022/04/29 10:21:37;;;;;;;11.53;7.53;;;;;;;;;;5054333;28;20808;-63
2022/04/29 10:24:03;;;;;;;12.53;7.03;;;;;;;;;;5053975;28;20467;-69
2022/04/29 10:26:30;;;;;;;8.60;6.90;;;;;;;;;;5054337;28;20456;-57
2022/04/29 10:28:56;;;;;;;11.90;7.57;;;;;;;;;;5053968;28;20522;-64
2022/04/29 10:31:23;;;;;;;11.70;7.30;;;;;;;;;;5069652;28;20508;-62
2022/04/29 10:33:49;;;;;;;8.10;6.47;;;;;;;;;;5054398;28;20408;-65
2022/04/29 10:36:19;;;;;;;8.20;7.40;;;;;;;;;;5054101;28;20803;-63
2022/04/29 10:38:46;;;;;;;9.50;6.60;;;;;;;;;;5069564;28;20443;-64
2022/04/29 10:41:15;;;;;;;9.43;6.23;;;;;;;;;;5069073;28;20913;-66
2022/04/29 10:43:51;;;;;;;10.27;8.10;;;;;;;;;;5054124;28;20463;-60
2022/04/29 10:46:20;;;;;;;11.50;7.23;;;;;;;;;;5054024;28;20927;-59
2022/04/29 10:48:46;;;;;;;8.27;7.40;;;;;;;;;;5053860;28;20921;-67
2022/04/29 10:51:27;;;;;;;9.57;7.13;;;;;;;;;;5053803;28;20416;-65
2022/04/29 10:53:55;;;;;;;9.30;6.70;;;;;;;;;;5053569;28;20403;-67
2022/04/29 10:56:30;;;;;;;16.03;7.30;;;;;;;;;;5053743;28;20412;-64
2022/04/29 10:59:12;;;;;;;12.20;8.80;;;;;;;;;;5053961;28;20435;-52
2022/04/29 11:01:41;;;;;;;10.23;7.40;;;;;;;;;;5053874;28;20444;-70
2022/04/29 11:04:08;;;;;;;9.50;7.60;;;;;;;;;;5038251;28;20837;-61
2022/04/29 11:06:38;;;;;;;14.17;7.00;;;;;;;;;;5033605;28;20404;-56
2022/04/29 11:09:23;;;;;;;11.83;7.30;;;;;;;;;;5033616;28;20878;-67
2022/04/29 11:11:49;;;;;;;9.40;7.00;;;;;;;;;;5033485;28;20400;-60
2022/04/29 11:14:15;;;;;;;8.33;6.90;;;;;;;;;;5033336;28;20900;-63
2022/04/29 11:17:00;;;;;;;10.03;7.43;;;;;;;;;;5031956;28;20427;-54
2022/04/29 11:19:28;;;;;;;9.97;8.20;;;;;;;;;;5033455;28;20417;-71
2022/04/29 11:24:44;;;;;;;9.53;7.90;;;;;;;;;;5033178;28;20588;-60
2022/04/29 11:27:10;;;;;;;10.20;8.30;;;;;;;;;;5033408;28;20411;-68
2022/04/29 11:29:43;;;;;;;11.53;8.40;;;;;;;;;;5031989;28;20424;-67
2022/04/29 11:32:10;;;;;;;9.97;7.87;;;;;;;;;;5033061;28;20420;-65
2022/04/29 11:34:36;;;;;;;11.70;8.13;;;;;;;;;;5032869;28;20459;-65
2022/04/29 11:37:02;;;;;;;9.73;8.20;;;;;;;;;;5033020;28;20409;-61
2022/04/29 11:39:35;;;;;;;11.00;7.87;;;;;;;;;;5033038;28;20474;-62
2022/04/29 11:42:02;;;;;;;10.83;8.50;;;;;;;;;;5032699;28;20407;-62
2022/04/29 11:44:34;;;;;;;9.83;7.50;;;;;;;;;;5031600;28;20468;-63
2022/04/29 11:47:02;;;;;;;11.93;7.90;;;;;;;;;;5031605;28;20450;-65
2022/04/29 11:49:32;;;;;;;8.97;8.07;;;;;;;;;;5044203;28;20415;-61
2022/04/29 11:52:16;;;;;;;10.27;7.73;;;;;;;;;;5072049;28;20399;-70
2022/04/29 11:54:49;;;;;;;14.10;7.43;;;;;;;;;;5072597;28;20414;-69
2022/04/29 11:57:15;;;;;;;9.10;7.40;;;;;;;;;;5072720;28;20410;-54
2022/04/29 11:59:41;;;;;;;9.40;7.23;;;;;;;;;;5088117;28;20410;-70
2022/04/29 12:02:10;;;;;;;10.47;8.17;;;;;;;;;;5072331;28;20452;-56
2022/04/29 12:04:36;;;;;;;10.73;6.80;;;;;;;;;;5054752;28;20537;-64
2022/04/29 12:07:03;;;;;;;12.97;7.10;;;;;;;;;;5052309;28;20905;-64
2022/04/29 12:09:35;;;;;;;10.83;7.60;;;;;;;;;;5052296;28;20806;-68
2022/04/29 12:12:01;;;;;;;9.13;7.50;;;;;;;;;;5052100;28;20486;-64
2022/04/29 12:14:27;;;;;;;13.80;8.40;;;;;;;;;;5050984;28;20416;-66
2022/04/29 12:16:54;;;;;;;7.73;6.90;;;;;;;;;;5052050;28;20414;-68
2022/04/29 12:19:23;;;;;;;10.53;7.67;;;;;;;;;;5052318;28;20483;-60
2022/04/29 12:21:56;;;;;;;8.63;7.00;;;;;;;;;;5052229;28;20557;-58
2022/04/29 12:24:22;;;;;;;9.90;6.97;;;;;;;;;;5052003;28;20474;-59
2022/04/29 12:27:07;;;;;;;12.67;6.50;;;;;;;;;;5052210;28;20904;-69
2022/04/29 12:29:34;;;;;;;9.37;6.33;;;;;;;;;;5052015;28;20407;-57
2022/04/29 12:35:11;;;;;;;9.37;7.00;;;;;;;;;;5051816;28;20411;-66
2022/04/29 12:37:38;;;;;;;9.63;6.80;;;;;;;;;;5052136;28;20404;-53
2022/04/29 12:40:11;;;;;;;10.97;6.50;;;;;;;;;;5051685;28;20419;-56
2022/04/29 12:42:37;;;;;;;7.83;6.70;;;;;;;;;;5051752;28;20407;-66
2022/04/29 12:45:24;;;;;;;10.30;6.60;;;;;;;;;;5051643;28;20411;-63
2022/04/29 12:47:53;;;;;;;10.80;5.90;;;;;;;;;;5051758;28;20461;-55
2022/04/29 12:50:28;;;;;;;9.70;5.80;;;;;;;;;;5064045;28;20422;-54
2022/04/29 12:52:56;;;;;;;8.07;6.23;;;;;;;;;;5071772;28;20410;-55
2022/04/29 12:55:22;;;;;;;9.30;6.40;;;;;;;;;;5087281;28;20418;-53
2022/04/29 12:57:49;;;;;;;13.10;6.67;;;;;;;;;;5087175;28;20410;-53
2022/04/29 13:00:21;;;;;;;6.80;5.77;;;;;;;;;;5086956;28;20184;-60
2022/04/29 13:02:57;;;;;;;7.83;6.20;;;;;;;;;;5068352;28;20522;-58
2022/04/29 13:05:23;;;;;;;10.60;6.20;;;;;;;;;;5051407;28;20415;-62
2022/04/29 13:07:49;;;;;;;11.60;5.70;;;;;;;;;;5051488;28;20411;-58
2022/04/29 13:10:17;;;;;;;9.77;6.10;;;;;;;;;;5050213;28;20423;-64
2022/04/29 13:12:44;;;;;;;13.00;6.50;;;;;;;;;;5051512;28;20400;-62
2022/04/29 13:15:11;;;;;;;11.50;5.50;;;;;;;;;;5051440;28;21169;-54
2022/04/29 13:17:38;;;;;;;6.90;5.77;;;;;;;;;;5051391;28;20494;-58
2022/04/29 13:20:05;;;;;;;6.77;4.90;;;;;;;;;;5051189;28;20415;-58
2022/04/29 13:22:31;;;;;;;9.03;5.30;;;;;;;;;;5051355;28;20462;-62
2022/04/29 13:24:59;;;;;;;5.90;5.47;;;;;;;;;;5051135;28;20570;-54
2022/04/29 13:27:25;;;;;;;7.50;5.97;;;;;;;;;;5051309;28;20746;-52
2022/04/29 13:29:51;;;;;;;12.87;7.87;;;;;;;;;;5051157;28;20423;-54
2022/04/29 13:32:17;;;;;;;8.73;5.60;;;;;;;;;;5051327;28;20395;-58
2022/04/29 13:34:43;;;;;;;7.43;6.73;;;;;;;;;;5051244;28;20200;-52
2022/04/29 13:37:09;;;;;;;6.90;5.30;;;;;;;;;;5051264;28;20431;-56
2022/04/29 13:39:41;;;;;;;10.23;5.73;;;;;;;;;;5051208;28;20169;-60
2022/04/29 13:42:08;;;;;;;7.50;5.43;;;;;;;;;;5049631;28;20440;-57
2022/04/29 13:44:34;;;;;;;5.70;5.20;;;;;;;;;;5051285;28;20560;-58
2022/04/29 13:47:00;;;;;;;12.97;6.03;;;;;;;;;;5051060;28;20738;-59
2022/04/29 13:49:26;;;;;;;7.57;5.60;;;;;;;;;;5057359;28;20413;-63
2022/04/29 13:51:52;;;;;;;5.80;4.80;;;;;;;;;;5071046;28;20399;-51
2022/04/29 13:54:18;;;;;;;8.80;6.57;;;;;;;;;;5071181;28;20171;-59
2022/04/29 13:56:46;;;;;;;6.37;5.77;;;;;;;;;;5071077;28;20402;-57
2022/04/29 13:59:12;;;;;;;6.67;5.97;;;;;;;;;;5070846;28;20571;-58
2022/04/29 14:01:41;;;;;;;7.80;5.90;;;;;;;;;;5070976;28;20929;-59
2022/04/29 14:04:07;;;;;;;6.43;5.07;;;;;;;;;;5057121;28;20466;-60
2022/04/29 14:06:33;;;;;;;12.27;6.40;;;;;;;;;;5051023;28;20407;-60
2022/04/29 14:08:59;;;;;;;7.27;5.60;;;;;;;;;;5049777;28;20177;-54
2022/04/29 14:11:25;;;;;;;11.57;6.50;;;;;;;;;;5050991;28;20165;-62
2022/04/29 14:13:51;;;;;;;11.33;5.40;;;;;;;;;;5050604;28;20418;-52
2022/04/29 14:16:17;;;;;;;10.97;6.00;;;;;;;;;;5054489;28;20740;-61
2022/04/29 14:18:43;;;;;;;6.33;4.87;;;;;;;;;;5054579;28;20407;-53
2022/04/29 14:21:09;;;;;;;10.40;4.47;;;;;;;;;;5054351;28;20179;-56
2022/04/29 14:23:35;;;;;;;7.77;5.13;;;;;;;;;;5054536;28;20463;-53
2022/04/29 14:26:04;;;;;;;8.53;4.90;;;;;;;;;;5054380;28;20403;-54
2022/04/29 14:28:30;;;;;;;6.87;4.60;;;;;;;;;;5054307;28;20481;-54
2022/04/29 14:30:56;;;;;;;7.57;5.13;;;;;;;;;;5054310;28;20435;-56
2022/04/29 14:33:25;;;;;;;10.07;5.80;;;;;;;;;;5054324;28;20621;-54
2022/04/29 14:35:51;;;;;;;7.20;5.07;;;;;;;;;;5054176;28;20637;-56
2022/04/29 14:38:18;;;;;;;6.57;4.80;;;;;;;;;;5054369;28;20498;-55
2022/04/29 14:40:44;;;;;;;9.10;5.77;;;;;;;;;;5054028;28;20457;-59
2022/04/29 14:43:10;;;;;;;6.90;4.63;;;;;;;;;;5053913;28;20532;-55
2022/04/29 14:45:36;;;;;;;5.63;4.30;;;;;;;;;;5052649;28;20411;-56
2022/04/29 14:48:02;;;;;;;5.60;4.10;;;;;;;;;;5053788;28;20787;-57
2022/04/29 14:50:30;;;;;;;6.93;4.57;;;;;;;;;;5068471;28;20402;-56
2022/04/29 14:52:56;;;;;;;4.67;4.27;;;;;;;;;;5073894;28;20837;-58
2022/04/29 14:55:22;;;;;;;10.87;4.17;;;;;;;;;;5073906;28;20406;-56